createdAt,value
2024-03-04T05:47:39.019Z,100462.83
2024-03-04T05:50:07.814Z,100465.97
2024-03-04T05:52:36.264Z,100461.82
2024-03-04T05:55:05.785Z,100459.66
2024-03-04T05:57:35.653Z,100464.25
2024-03-04T06:00:13.023Z,100461.92
2024-03-04T06:02:42.146Z,100466.37
2024-03-04T06:05:11.851Z,100465.82
2024-03-04T06:07:39.625Z,100463.67
2024-03-04T06:10:08.446Z,100467.21
2024-03-04T06:12:36.050Z,100465.70
2024-03-04T06:15:10.060Z,100464.48
2024-03-04T06:17:39.807Z,100465.52
2024-03-04T06:23:46.406Z,100463.86
2024-03-04T06:39:34.865Z,100471.23
2024-03-04T06:46:55.420Z,100465.51
2024-03-04T06:50:25.574Z,100458.98
2024-03-04T06:57:08.144Z,100455.81
2024-03-04T07:00:14.321Z,100452.04
2024-03-04T07:02:51.928Z,100452.84
2024-03-04T07:09:04.684Z,100446.15
2024-03-04T07:12:24.776Z,100443.77
2024-03-04T07:15:07.113Z,100442.55
2024-03-04T07:17:53.599Z,100442.48
2024-03-04T07:20:33.878Z,100444.91
2024-03-04T07:26:21.593Z,100440.97
2024-03-04T07:28:50.461Z,100444.58
2024-03-04T07:31:20.229Z,100443.32
2024-03-04T07:33:47.730Z,100437.61
2024-03-04T07:36:35.404Z,100438.82
2024-03-04T07:39:09.029Z,100432.27
2024-03-04T07:41:49.753Z,100433.81
2024-03-04T07:44:54.452Z,100434.59
2024-03-04T07:48:06.388Z,100436.45
2024-03-04T07:50:36.839Z,100440.16
2024-03-04T07:53:08.779Z,100438.81
2024-03-04T07:55:48.381Z,100436.80
2024-03-04T07:58:37.078Z,100438.57
2024-03-04T08:01:21.862Z,100440.45
2024-03-04T08:04:37.349Z,100435.70
2024-03-04T08:07:19.495Z,100438.17
2024-03-04T08:10:33.833Z,100436.89
2024-03-04T08:14:16.151Z,100433.13
2024-03-04T08:21:19.313Z,100424.95
2024-03-04T08:31:48.480Z,100427.64
2024-03-04T08:34:30.159Z,100426.77
2024-03-04T08:37:13.769Z,100427.69
2024-03-04T08:39:50.419Z,100425.08
2024-03-04T08:42:27.427Z,100427.70
2024-03-04T08:44:55.073Z,100422.18
2024-03-04T08:47:36.876Z,100422.00
2024-03-04T08:50:07.209Z,100427.52
2024-03-04T08:52:35.470Z,100431.52
2024-03-04T08:55:05.592Z,100433.81
2024-03-04T08:57:44.112Z,100432.84
2024-03-04T09:00:14.422Z,100431.09
2024-03-04T09:02:52.785Z,100427.71
2024-03-04T09:05:35.481Z,100426.93
2024-03-04T09:08:05.924Z,100427.67
2024-03-04T09:10:39.441Z,100423.48
2024-03-04T09:13:09.606Z,100423.58
2024-03-04T09:15:41.042Z,100426.45
2024-03-04T09:18:29.742Z,100423.89
2024-03-04T09:21:05.402Z,100419.09
2024-03-04T09:23:43.258Z,100421.41
2024-03-04T09:26:17.702Z,100420.23
2024-03-04T09:28:59.015Z,100418.17
2024-03-04T09:31:35.297Z,100409.25
2024-03-04T09:34:04.554Z,100412.84
2024-03-04T09:36:37.147Z,100407.40
2024-03-04T09:39:12.892Z,100406.81
2024-03-04T09:45:33.406Z,100400.28
2024-03-04T09:48:19.435Z,100402.98
2024-03-04T09:50:47.650Z,100398.48
2024-03-04T09:53:58.071Z,100392.16
2024-03-04T09:57:32.514Z,100384.32
2024-03-04T10:00:25.158Z,100384.11
2024-03-04T10:03:09.696Z,100376.36
2024-03-04T10:05:46.946Z,100370.68
2024-03-04T10:08:17.206Z,100374.57
2024-03-04T10:10:51.828Z,100374.08
2024-03-04T10:13:19.767Z,100366.60
2024-03-04T10:16:08.614Z,100370.98
2024-03-04T10:19:13.553Z,100367.55
2024-03-04T10:21:58.405Z,100365.86
2024-03-04T10:24:33.282Z,100361.94
2024-03-04T10:31:24.291Z,100354.71
2024-03-04T10:34:45.589Z,100359.58
2024-03-04T10:41:54.500Z,100349.79
2024-03-04T10:44:28.148Z,100343.02
2024-03-04T10:47:04.043Z,100336.92
2024-03-04T10:49:43.665Z,100334.44
2024-03-04T10:53:04.329Z,100331.20
2024-03-04T10:59:30.043Z,100323.55
2024-03-04T11:02:12.303Z,100313.92
2024-03-04T11:04:44.785Z,100315.64
2024-03-04T11:07:17.592Z,100313.78
2024-03-04T11:09:50.952Z,100308.45
2024-03-04T11:13:08.903Z,100313.21
2024-03-04T11:15:58.441Z,100314.64
2024-03-04T11:19:26.564Z,100315.20
2024-03-04T11:22:23.171Z,100308.73
2024-03-04T11:25:27.032Z,100303.80
2024-03-04T11:28:43.324Z,100306.19
2024-03-04T11:31:12.708Z,100307.15
2024-03-04T11:33:52.398Z,100301.69
2024-03-04T11:37:09.917Z,100301.92
2024-03-04T11:40:26.505Z,100295.85
2024-03-04T11:44:00.141Z,100292.70
2024-03-04T11:50:14.505Z,100292.61
2024-03-04T11:53:22.416Z,100293.34
2024-03-04T11:55:58.061Z,100294.76
2024-03-04T11:58:34.069Z,100298.66
2024-03-04T12:01:19.841Z,100299.71
2024-03-04T12:04:30.316Z,100295.41
2024-03-04T12:06:58.084Z,100293.70
2024-03-04T12:09:49.504Z,100296.40
2024-03-04T12:12:27.797Z,100295.08
2024-03-04T12:18:54.175Z,100290.56
2024-03-04T12:21:25.346Z,100287.67
2024-03-04T12:23:56.822Z,100287.41
2024-03-04T12:26:23.973Z,100285.58
2024-03-04T12:29:04.260Z,100279.70
2024-03-04T12:31:33.302Z,100285.09
2024-03-04T12:34:04.752Z,100280.86
2024-03-04T12:36:32.001Z,100281.47
2024-03-04T12:39:02.077Z,100281.55
2024-03-04T12:41:30.299Z,100278.61
2024-03-04T12:43:59.112Z,100275.11
2024-03-04T12:46:27.358Z,100278.33
2024-03-04T12:49:05.243Z,100275.40
2024-03-04T12:51:37.770Z,100273.94
2024-03-04T12:54:05.557Z,100274.38
2024-03-04T12:56:32.501Z,100271.31
2024-03-04T12:58:59.823Z,100275.02
2024-03-04T13:01:28.045Z,100273.26
2024-03-04T13:03:56.915Z,100274.31
2024-03-04T13:06:28.252Z,100273.55
2024-03-04T13:08:59.206Z,100272.02
2024-03-04T13:16:05.119Z,100265.38
2024-03-04T13:18:33.242Z,100259.46
2024-03-04T13:21:03.984Z,100259.59
2024-03-04T13:23:32.360Z,100260.45
2024-03-04T13:26:00.930Z,100261.16
2024-03-04T13:28:28.722Z,100258.88
2024-03-04T13:30:56.810Z,100255.05
2024-03-04T13:33:24.902Z,100252.55
2024-03-04T13:35:52.933Z,100251.55
2024-03-04T13:38:20.466Z,100249.90
2024-03-04T13:40:48.708Z,100250.73
2024-03-04T13:43:30.833Z,100247.17
2024-03-04T13:46:24.136Z,100243.84
2024-03-04T13:48:51.787Z,100242.95
2024-03-04T13:51:19.508Z,100236.14
2024-03-04T13:53:53.612Z,100239.36
2024-03-04T14:00:39.555Z,100244.09
2024-03-04T14:03:19.203Z,100237.50
2024-03-04T14:05:46.847Z,100238.56
2024-03-04T14:08:14.712Z,100234.30
2024-03-04T14:10:48.525Z,100234.20
2024-03-04T14:13:16.755Z,100233.06
2024-03-04T14:15:47.041Z,100234.77
2024-03-04T14:18:15.723Z,100235.95
